Tommy Cenac — WDJ7482 — position and weather

sailwx.info

Track history (hours):
 
Tides and Currents Weather Stations Pressure Air Temp Water Temp Dewpoint Dewpoint Depression Visibility Wind Speed Wind Dir Waves Ship Positions

Tommy Cenac

Owner: Cenac Marine Services, LLC, Houma, LA. More information available from US FCC via Universal Licensing System and Coast Guard Vessel Documentation Center.

Last reported at 2018-Jan-03 12:22 UTC. Time now 2018-Jan-20 16:52 UTC.
Position N 32°40' W 091°08'.
Warning: this ship's position is 17 days out of date.

Length 25 m; draft 3.8 m.

Type: Ship (hazmat cat A). MMSI: 368007140.

Date/timePositionNaut miles runAvg speedWind from/ knotsBaromVisibWave heightAir tempDewpointWater temp
2018-Jan-03 12:22N 32°40' W 091°08'3 4.4
2018-Jan-03 11:46N 32°38' W 091°09'1 4.2
2018-Jan-03 11:30N 32°37' W 091°09'2 4.7
2018-Jan-03 11:00N 32°35' W 091°07'2 4.5
2018-Jan-03 10:30N 32°33' W 091°06'2 3.9
2018-Jan-03 10:00N 32°31' W 091°06'2 4.8
2018-Jan-03 09:30N 32°29' W 091°07'2 4.5
2018-Jan-03 09:00N 32°27' W 091°05'2 4.8
2018-Jan-03 08:30N 32°26' W 091°02'2 4.9
2018-Jan-03 08:00N 32°25' W 090°60'2 4.0
2018-Jan-03 07:30N 32°23' W 090°60'2 3.5
2018-Jan-03 07:00N 32°21' W 090°60'2 4.6
2018-Jan-03 06:30N 32°21' W 090°57'2 5.0
2018-Jan-03 06:00N 32°20' W 090°54'2 4.4
2018-Jan-03 05:30N 32°18' W 090°55'3 5.3
2018-Jan-03 05:00N 32°16' W 090°57'2 5.0
2018-Jan-03 04:30N 32°14' W 090°59'2 4.9
2018-Jan-03 04:00N 32°12' W 090°59'2 4.6
2018-Jan-03 03:28N 32°10' W 091°00'2 4.4
2018-Jan-03 03:00N 32°08' W 091°01'2 4.1
2018-Jan-03 02:30N 32°07' W 091°03'2 4.6
2018-Jan-03 02:00N 32°08' W 091°06'2 4.1
2018-Jan-03 01:30N 32°06' W 091°06'5 2.9
2018-Jan-02 23:54N 32°02' W 091°04'  
2017-Dec-27 09:06N 32°00' W 091°05'1 8.2
2017-Dec-27 09:00N 32°01' W 091°05'4 8.0
2017-Dec-27 08:30N 32°05' W 091°04'3 7.1
2017-Dec-27 08:00N 32°08' W 091°06'4 8.2
2017-Dec-27 07:30N 32°07' W 091°01'4 8.6
2017-Dec-27 07:00N 32°11' W 090°60'4 9.0
2017-Dec-27 06:30N 32°16' W 090°58'4 8.6
2017-Dec-27 06:00N 32°19' W 090°54'3 5.7
2017-Dec-27 05:30N 32°21' W 090°57'3 6.7
2017-Dec-27 05:00N 32°22' W 091°00'3 6.9
2017-Dec-27 04:30N 32°26' W 091°01'4 8.4
2017-Dec-27 04:00N 32°28' W 091°06'4 7.8
2017-Dec-27 03:27N 32°32' W 091°06'4 8.4
2017-Dec-27 03:00N 32°35' W 091°08'5 7.9
2017-Dec-27 02:23N 32°40' W 091°08'  
Track history (hours):
 
Tides and Currents Weather Stations Pressure Air Temp Water Temp Dewpoint Dewpoint Depression Visibility Wind Speed Wind Dir Waves Ship Positions

Tommy Cenac

Owner: Cenac Marine Services, LLC, Houma, LA. More information available from US FCC via Universal Licensing System and Coast Guard Vessel Documentation Center.

Last reported at 2018-Jan-03 12:22 UTC. Time now 2018-Jan-20 16:52 UTC.
Position N 32°40' W 091°08'.
Warning: this ship's position is 17 days out of date.

Length 25 m; draft 3.8 m.

Type: Ship (hazmat cat A). MMSI: 368007140.

Date/timePositionNaut miles runAvg speedWind from/ knotsBaromVisibWave heightAir tempDewpointWater temp
2018-Jan-03 12:22N 32°40' W 091°08'3 4.4
2018-Jan-03 11:46N 32°38' W 091°09'1 4.2
2018-Jan-03 11:30N 32°37' W 091°09'2 4.7
2018-Jan-03 11:00N 32°35' W 091°07'2 4.5
2018-Jan-03 10:30N 32°33' W 091°06'2 3.9
2018-Jan-03 10:00N 32°31' W 091°06'2 4.8
2018-Jan-03 09:30N 32°29' W 091°07'2 4.5
2018-Jan-03 09:00N 32°27' W 091°05'2 4.8
2018-Jan-03 08:30N 32°26' W 091°02'2 4.9
2018-Jan-03 08:00N 32°25' W 090°60'2 4.0
2018-Jan-03 07:30N 32°23' W 090°60'2 3.5
2018-Jan-03 07:00N 32°21' W 090°60'2 4.6
2018-Jan-03 06:30N 32°21' W 090°57'2 5.0
2018-Jan-03 06:00N 32°20' W 090°54'2 4.4
2018-Jan-03 05:30N 32°18' W 090°55'3 5.3
2018-Jan-03 05:00N 32°16' W 090°57'2 5.0
2018-Jan-03 04:30N 32°14' W 090°59'2 4.9
2018-Jan-03 04:00N 32°12' W 090°59'2 4.6
2018-Jan-03 03:28N 32°10' W 091°00'2 4.4
2018-Jan-03 03:00N 32°08' W 091°01'2 4.1
2018-Jan-03 02:30N 32°07' W 091°03'2 4.6
2018-Jan-03 02:00N 32°08' W 091°06'2 4.1
2018-Jan-03 01:30N 32°06' W 091°06'5 2.9
2018-Jan-02 23:54N 32°02' W 091°04'  
2017-Dec-27 09:06N 32°00' W 091°05'1 8.2
2017-Dec-27 09:00N 32°01' W 091°05'4 8.0
2017-Dec-27 08:30N 32°05' W 091°04'3 7.1
2017-Dec-27 08:00N 32°08' W 091°06'4 8.2
2017-Dec-27 07:30N 32°07' W 091°01'4 8.6
2017-Dec-27 07:00N 32°11' W 090°60'4 9.0
2017-Dec-27 06:30N 32°16' W 090°58'4 8.6
2017-Dec-27 06:00N 32°19' W 090°54'3 5.7
2017-Dec-27 05:30N 32°21' W 090°57'3 6.7
2017-Dec-27 05:00N 32°22' W 091°00'3 6.9
2017-Dec-27 04:30N 32°26' W 091°01'4 8.4
2017-Dec-27 04:00N 32°28' W 091°06'4 7.8
2017-Dec-27 03:27N 32°32' W 091°06'4 8.4
2017-Dec-27 03:00N 32°35' W 091°08'5 7.9
2017-Dec-27 02:23N 32°40' W 091°08'  

Dump ship's entire track history